Time;durP1;ratioP1;P1;durP2;ratioP2;P2;SDS_P1;SDS_P2;PMS_P1;PMS_P2;Temp;Humidity;BMP_temperature;BMP_pressure;BME280_temperature;BME280_humidity;BME280_pressure;Samples;Min_cycle;Max_cycle;Signal;HPM_P1;HPM_P2
2023/07/09 00:00:40;;;;;;;11.85;11.38;;;23.00;99.90;;;;;;5030480;28;20197;-66
2023/07/09 00:03:11;;;;;;;11.95;11.55;;;22.90;99.90;;;;;;5030810;28;20597;-65
2023/07/09 00:05:38;;;;;;;12.85;12.35;;;22.90;99.90;;;;;;5030613;28;20205;-65
2023/07/09 00:08:05;;;;;;;11.80;11.40;;;23.00;99.90;;;;;;5030668;28;20581;-64
2023/07/09 00:10:34;;;;;;;12.75;12.25;;;23.00;99.90;;;;;;5029713;28;20574;-65
2023/07/09 00:13:01;;;;;;;12.63;12.13;;;23.10;99.90;;;;;;5030460;28;20236;-65
2023/07/09 00:15:28;;;;;;;12.55;12.15;;;23.10;99.90;;;;;;5028976;28;20295;-65
2023/07/09 00:17:54;;;;;;;13.10;12.60;;;23.20;99.90;;;;;;5031009;28;20224;-65
2023/07/09 00:20:23;;;;;;;13.00;12.50;;;23.20;99.90;;;;;;5030378;28;20386;-64
2023/07/09 00:22:52;;;;;;;12.27;11.77;;;23.20;99.90;;;;;;5031435;28;20229;-64
2023/07/09 00:25:20;;;;;;;13.95;13.45;;;23.20;99.90;;;;;;5032140;28;20212;-64
2023/07/09 00:27:49;;;;;;;12.60;12.18;;;23.20;99.90;;;;;;5038465;28;20211;-65
2023/07/09 00:30:19;;;;;;;16.45;15.75;;;23.20;99.90;;;;;;5032365;28;20209;-64
2023/07/09 00:32:45;;;;;;;12.18;11.68;;;23.20;99.90;;;;;;5031002;28;20229;-64
2023/07/09 00:35:15;;;;;;;12.13;11.73;;;23.20;99.90;;;;;;5031058;28;20216;-65
2023/07/09 00:37:43;;;;;;;13.48;12.98;;;23.20;99.90;;;;;;5011271;28;20351;-65
2023/07/09 00:40:22;;;;;;;14.68;14.10;;;23.20;99.90;;;;;;5009447;28;20209;-64
2023/07/09 00:42:52;;;;;;;12.60;12.20;;;23.10;99.90;;;;;;5009501;28;20727;-64
2023/07/09 00:45:21;;;;;;;12.95;12.45;;;23.00;99.90;;;;;;5010355;28;20533;-65
2023/07/09 00:47:57;;;;;;;13.45;12.95;;;22.90;99.90;;;;;;5010138;28;20336;-65
2023/07/09 00:50:34;;;;;;;12.68;12.18;;;22.90;99.90;;;;;;5009304;28;20203;-64
2023/07/09 00:53:10;;;;;;;12.75;12.20;;;22.80;99.90;;;;;;5010306;28;20754;-64
2023/07/09 00:55:43;;;;;;;12.18;11.68;;;22.70;99.90;;;;;;5013016;28;20295;-63
2023/07/09 00:58:15;;;;;;;11.88;11.48;;;22.80;99.90;;;;;;5010427;28;20225;-66
2023/07/09 01:00:47;;;;;;;12.75;12.35;;;22.80;99.90;;;;;;5011287;28;20946;-63
2023/07/09 01:03:20;;;;;;;12.30;11.90;;;22.70;99.90;;;;;;5010224;28;20221;-66
2023/07/09 01:05:51;;;;;;;12.05;11.65;;;22.60;99.90;;;;;;5010325;28;20488;-64
2023/07/09 01:08:20;;;;;;;12.88;12.45;;;22.70;99.90;;;;;;5008295;28;20209;-65
2023/07/09 01:10:47;;;;;;;13.63;13.13;;;22.70;99.90;;;;;;5009347;28;20212;-62
2023/07/09 01:13:15;;;;;;;13.07;12.65;;;22.70;99.90;;;;;;5009742;28;20209;-63
2023/07/09 01:15:42;;;;;;;13.07;12.60;;;22.70;99.90;;;;;;5009432;28;20201;-63
2023/07/09 01:18:10;;;;;;;12.57;12.15;;;22.60;99.90;;;;;;5004708;28;20292;-64
2023/07/09 01:20:40;;;;;;;16.60;15.95;;;22.60;99.90;;;;;;5008472;28;20686;-65
2023/07/09 01:23:09;;;;;;;12.70;12.30;;;22.60;99.90;;;;;;5009351;28;20762;-63
2023/07/09 01:25:39;;;;;;;12.63;12.18;;;22.60;99.90;;;;;;5009255;28;20194;-64
2023/07/09 01:28:06;;;;;;;12.77;12.38;;;22.50;99.90;;;;;;5009499;28;20550;-64
2023/07/09 01:30:36;;;;;;;12.70;12.20;;;22.50;99.90;;;;;;5009102;28;20205;-64
2023/07/09 01:33:06;;;;;;;14.75;14.20;;;22.50;99.90;;;;;;5008800;28;20753;-64
2023/07/09 01:35:35;;;;;;;21.00;20.20;;;22.40;99.90;;;;;;5009282;28;20257;-65
2023/07/09 01:38:03;;;;;;;22.98;22.17;;;22.40;99.90;;;;;;5009201;28;20207;-64
2023/07/09 01:40:32;;;;;;;15.05;14.55;;;22.40;99.90;;;;;;5010814;28;20201;-65
2023/07/09 01:43:00;;;;;;;19.88;19.17;;;22.50;99.90;;;;;;5012861;28;20244;-64
2023/07/09 01:45:27;;;;;;;17.90;17.27;;;22.50;99.90;;;;;;5012962;28;20591;-65
2023/07/09 01:47:55;;;;;;;17.60;16.98;;;22.40;99.90;;;;;;5013265;28;20640;-65
2023/07/09 01:50:24;;;;;;;16.75;16.15;;;22.40;99.90;;;;;;5012505;28;20216;-65
2023/07/09 01:52:51;;;;;;;15.93;15.32;;;22.30;99.90;;;;;;5013412;28;20233;-64
2023/07/09 01:55:19;;;;;;;16.50;15.90;;;22.20;99.90;;;;;;5014044;28;20205;-65
2023/07/09 01:57:48;;;;;;;18.15;17.50;;;22.10;99.90;;;;;;5014077;28;20237;-64
2023/07/09 02:00:17;;;;;;;18.30;17.67;;;22.10;99.90;;;;;;5013571;28;20232;-64
2023/07/09 02:02:46;;;;;;;18.10;17.45;;;22.00;99.90;;;;;;5013837;28;20655;-64
2023/07/09 02:05:15;;;;;;;15.48;14.98;;;22.00;99.90;;;;;;5013908;28;20205;-64
2023/07/09 02:07:42;;;;;;;16.67;16.08;;;21.90;99.90;;;;;;5023512;28;20273;-65
2023/07/09 02:10:11;;;;;;;17.77;17.08;;;22.00;99.90;;;;;;5028624;28;20225;-64
2023/07/09 02:12:37;;;;;;;17.25;16.65;;;22.00;99.90;;;;;;5027615;28;20296;-64
2023/07/09 02:15:07;;;;;;;17.90;17.30;;;21.90;99.90;;;;;;5015235;28;20194;-65
2023/07/09 02:17:34;;;;;;;16.88;16.27;;;21.90;99.90;;;;;;5013579;28;20687;-63
2023/07/09 02:20:01;;;;;;;17.92;17.25;;;21.90;99.90;;;;;;5013097;28;20244;-63
2023/07/09 02:22:28;;;;;;;18.52;17.83;;;21.90;99.90;;;;;;5013688;28;20232;-64
2023/07/09 02:24:55;;;;;;;16.23;15.63;;;21.90;99.90;;;;;;5013535;28;20209;-64
2023/07/09 02:27:22;;;;;;;17.75;17.13;;;21.80;99.90;;;;;;5013512;28;20663;-63
2023/07/09 02:29:49;;;;;;;16.65;16.05;;;21.80;99.90;;;;;;5012780;28;20730;-63
2023/07/09 02:32:21;;;;;;;15.20;14.65;;;21.80;99.90;;;;;;5013674;28;20243;-64
2023/07/09 02:34:48;;;;;;;15.43;14.93;;;21.90;99.90;;;;;;5013967;28;20209;-64
2023/07/09 02:37:16;;;;;;;16.02;15.50;;;21.90;99.90;;;;;;5013905;28;20416;-64
2023/07/09 02:39:43;;;;;;;17.50;16.90;;;22.00;99.90;;;;;;5012596;28;20239;-63
2023/07/09 02:42:11;;;;;;;17.17;16.48;;;22.10;99.90;;;;;;5013221;28;20229;-66
2023/07/09 02:44:38;;;;;;;14.75;14.15;;;22.20;99.90;;;;;;5043112;22;20734;-66
2023/07/09 02:47:05;;;;;;;15.77;15.18;;;22.10;99.90;;;;;;5026410;28;20207;-64
2023/07/09 02:49:33;;;;;;;16.60;16.00;;;22.00;99.90;;;;;;5018112;28;20241;-65
2023/07/09 02:52:00;;;;;;;15.43;14.93;;;22.00;99.90;;;;;;5013229;28;20308;-66
2023/07/09 02:54:27;;;;;;;16.73;16.13;;;21.90;99.90;;;;;;5013442;28;20316;-64
2023/07/09 02:56:54;;;;;;;15.90;15.30;;;21.80;99.90;;;;;;5013735;28;20216;-62
2023/07/09 02:59:20;;;;;;;17.00;16.40;;;21.80;99.90;;;;;;5013367;28;20300;-62
2023/07/09 03:01:48;;;;;;;19.75;19.05;;;21.70;99.90;;;;;;5013915;28;20300;-63
2023/07/09 03:04:15;;;;;;;21.85;21.05;;;21.60;99.90;;;;;;5014334;28;20582;-64
2023/07/09 03:06:44;;;;;;;15.88;15.27;;;21.50;99.90;;;;;;5014177;28;20201;-63
2023/07/09 03:09:11;;;;;;;15.55;15.05;;;21.40;99.90;;;;;;5013583;28;20224;-64
2023/07/09 03:11:37;;;;;;;13.90;13.40;;;21.30;99.90;;;;;;5014240;28;20220;-63
2023/07/09 03:14:05;;;;;;;13.88;13.38;;;21.30;99.90;;;;;;5014058;28;20233;-65
2023/07/09 03:16:33;;;;;;;15.65;15.07;;;21.30;99.90;;;;;;5014371;28;20205;-63
2023/07/09 03:19:01;;;;;;;13.40;12.90;;;21.30;99.90;;;;;;5013264;28;20221;-63
2023/07/09 03:21:29;;;;;;;16.42;15.82;;;21.30;99.90;;;;;;5011671;28;20268;-62
2023/07/09 03:23:58;;;;;;;15.52;15.02;;;21.40;99.90;;;;;;5014409;28;20225;-63
2023/07/09 03:26:26;;;;;;;14.38;13.88;;;21.50;99.90;;;;;;5033583;28;20211;-66
2023/07/09 03:28:53;;;;;;;14.55;14.05;;;21.50;99.90;;;;;;5032566;28;20212;-63
2023/07/09 03:31:21;;;;;;;14.93;14.43;;;21.50;99.90;;;;;;5031316;28;20217;-66
2023/07/09 03:33:48;;;;;;;15.98;15.40;;;21.50;99.90;;;;;;5028091;28;20221;-63
2023/07/09 03:36:15;;;;;;;15.98;15.38;;;21.40;99.90;;;;;;5012915;28;20683;-63
2023/07/09 03:38:42;;;;;;;17.42;16.75;;;21.40;99.90;;;;;;5015229;28;20229;-66
2023/07/09 03:41:10;;;;;;;15.82;15.23;;;21.40;99.90;;;;;;5020422;28;20205;-64
2023/07/09 03:43:37;;;;;;;15.98;15.43;;;21.30;99.90;;;;;;5015397;28;20236;-62
2023/07/09 03:46:04;;;;;;;17.55;16.85;;;21.30;99.90;;;;;;5013334;28;20201;-64
2023/07/09 03:48:31;;;;;;;20.63;19.83;;;21.40;99.90;;;;;;5013121;28;20292;-63
2023/07/09 03:50:58;;;;;;;16.23;15.63;;;21.30;99.90;;;;;;5012352;28;20694;-65
2023/07/09 03:53:24;;;;;;;14.85;14.35;;;21.30;99.90;;;;;;5013378;28;20232;-62
2023/07/09 03:55:54;;;;;;;15.65;15.05;;;21.30;99.90;;;;;;5013465;28;20212;-63
2023/07/09 03:58:26;;;;;;;16.23;15.63;;;21.30;99.90;;;;;;5013278;28;20235;-64
2023/07/09 04:00:53;;;;;;;16.90;16.27;;;21.40;99.90;;;;;;5012002;28;20307;-64
2023/07/09 04:03:20;;;;;;;16.65;16.05;;;21.40;99.90;;;;;;5012912;28;20229;-65
2023/07/09 04:05:48;;;;;;;17.95;17.25;;;21.50;99.90;;;;;;5013436;28;20426;-64
2023/07/09 04:08:15;;;;;;;17.25;16.65;;;21.50;99.90;;;;;;5012846;28;20235;-63
2023/07/09 04:10:42;;;;;;;16.42;15.82;;;21.50;99.90;;;;;;5011919;28;20288;-63
2023/07/09 04:13:09;;;;;;;16.13;15.55;;;21.50;99.90;;;;;;5011941;28;20229;-65
2023/07/09 04:15:37;;;;;;;18.52;17.83;;;21.40;99.90;;;;;;5016146;28;20205;-65
2023/07/09 04:18:04;;;;;;;16.30;15.70;;;21.30;99.90;;;;;;5019341;28;20205;-62
2023/07/09 04:20:31;;;;;;;19.42;18.73;;;21.30;99.90;;;;;;5010613;28;20232;-64
2023/07/09 04:22:58;;;;;;;19.13;18.42;;;21.30;99.90;;;;;;5013142;28;20711;-63
2023/07/09 04:25:25;;;;;;;17.60;16.95;;;21.20;99.90;;;;;;5013076;28;20640;-65
2023/07/09 04:27:52;;;;;;;17.48;16.88;;;21.20;99.90;;;;;;5012575;28;20201;-63
2023/07/09 04:30:19;;;;;;;18.27;17.58;;;21.20;99.90;;;;;;5012325;28;20681;-67
2023/07/09 04:32:47;;;;;;;19.48;18.77;;;21.20;99.90;;;;;;5013476;28;20691;-63
2023/07/09 04:35:15;;;;;;;17.40;16.80;;;21.20;99.90;;;;;;5013242;28;20202;-65
2023/07/09 04:37:43;;;;;;;20.08;19.38;;;21.20;99.90;;;;;;5015804;28;20272;-64
2023/07/09 04:40:13;;;;;;;20.80;20.10;;;21.20;99.90;;;;;;5033838;28;20652;-64
2023/07/09 04:42:41;;;;;;;22.92;22.13;;;21.20;99.90;;;;;;5033911;28;20240;-64
2023/07/09 04:45:10;;;;;;;20.70;19.98;;;21.30;99.90;;;;;;5034227;28;20208;-63
2023/07/09 04:47:37;;;;;;;20.27;19.48;;;21.30;99.90;;;;;;5033523;28;20458;-65
2023/07/09 04:50:07;;;;;;;20.25;19.55;;;21.30;99.90;;;;;;5036643;28;20197;-63
2023/07/09 04:52:34;;;;;;;20.20;19.48;;;21.30;99.90;;;;;;5037404;28;20204;-63
2023/07/09 04:55:01;;;;;;;21.38;20.58;;;21.40;99.90;;;;;;5019302;28;20644;-65
2023/07/09 04:57:28;;;;;;;18.55;17.85;;;21.50;99.90;;;;;;5011552;28;20994;-64
2023/07/09 04:59:55;;;;;;;20.73;20.02;;;21.50;99.90;;;;;;5010933;28;20225;-62
2023/07/09 05:02:22;;;;;;;20.27;19.58;;;21.60;99.90;;;;;;5011004;28;20299;-65
2023/07/09 05:04:49;;;;;;;18.50;17.80;;;21.70;99.90;;;;;;5010751;28;20878;-64
2023/07/09 05:07:17;;;;;;;19.65;18.95;;;21.80;99.90;;;;;;5009693;28;20209;-64
2023/07/09 05:09:44;;;;;;;20.40;19.60;;;21.80;99.90;;;;;;5010632;28;20204;-65
2023/07/09 05:12:11;;;;;;;21.23;20.52;;;21.90;99.90;;;;;;5018062;28;20205;-66
2023/07/09 05:14:38;;;;;;;19.90;19.20;;;22.00;99.90;;;;;;5017001;28;20768;-67
2023/07/09 05:17:05;;;;;;;21.20;20.40;;;22.10;99.90;;;;;;5016940;28;20276;-63
2023/07/09 05:19:32;;;;;;;25.05;24.15;;;22.20;99.90;;;;;;5011556;28;20581;-66
2023/07/09 05:21:59;;;;;;;23.40;22.60;;;22.40;99.90;;;;;;5011173;28;20201;-62
2023/07/09 05:24:27;;;;;;;27.52;26.48;;;22.40;99.90;;;;;;5011177;28;20225;-63
2023/07/09 05:26:54;;;;;;;21.23;20.45;;;22.60;99.90;;;;;;5011515;28;20300;-66
2023/07/09 05:29:21;;;;;;;21.77;21.00;;;22.70;99.90;;;;;;5011066;28;20213;-64
2023/07/09 05:31:48;;;;;;;21.13;20.38;;;22.70;99.90;;;;;;5011187;28;20664;-65
2023/07/09 05:34:15;;;;;;;26.23;25.23;;;22.80;99.90;;;;;;5010659;28;20231;-65
2023/07/09 05:36:41;;;;;;;23.33;22.52;;;22.90;99.90;;;;;;5011447;28;20219;-65
2023/07/09 05:39:08;;;;;;;23.90;23.00;;;23.10;99.90;;;;;;5008446;28;20251;-67
2023/07/09 05:41:36;;;;;;;23.38;22.58;;;23.30;99.90;;;;;;5014686;28;20209;-65
2023/07/09 05:44:04;;;;;;;26.50;25.52;;;23.50;99.90;;;;;;5021205;28;20243;-63
2023/07/09 05:46:35;;;;;;;25.15;24.25;;;23.60;99.90;;;;;;5020456;28;20268;-66
2023/07/09 05:49:02;;;;;;;24.60;23.73;;;23.80;99.90;;;;;;5018644;28;20212;-62
2023/07/09 05:51:29;;;;;;;26.30;25.30;;;24.00;99.90;;;;;;5015449;28;20255;-64
2023/07/09 05:53:56;;;;;;;23.13;22.33;;;24.10;99.90;;;;;;5011610;28;20226;-62
2023/07/09 05:56:23;;;;;;;27.98;26.98;;;24.30;99.90;;;;;;5011473;28;20213;-63
2023/07/09 05:58:52;;;;;;;27.30;26.33;;;24.50;99.90;;;;;;5011452;28;20679;-62
2023/07/09 06:01:20;;;;;;;29.45;28.35;;;24.60;99.90;;;;;;5010775;28;20256;-64
2023/07/09 06:03:47;;;;;;;25.67;24.73;;;24.70;99.90;;;;;;5024242;28;20556;-64
2023/07/09 06:06:14;;;;;;;26.67;25.77;;;24.80;99.90;;;;;;5031007;28;20555;-65
2023/07/09 06:08:41;;;;;;;27.40;26.40;;;25.00;99.90;;;;;;5030952;28;20204;-63
2023/07/09 06:11:08;;;;;;;27.98;26.98;;;25.00;99.90;;;;;;5032067;28;20190;-67
2023/07/09 06:13:35;;;;;;;26.42;25.52;;;25.20;99.90;;;;;;5028891;28;20222;-65
2023/07/09 06:16:03;;;;;;;24.05;23.15;;;25.30;99.90;;;;;;5012471;28;20204;-63
2023/07/09 06:18:30;;;;;;;25.42;24.52;;;25.40;99.90;;;;;;5017574;28;20213;-65
2023/07/09 06:21:00;;;;;;;24.17;23.33;;;25.50;99.90;;;;;;5011623;28;20226;-63
2023/07/09 06:23:27;;;;;;;26.00;25.10;;;25.60;99.90;;;;;;5011280;28;20221;-62
2023/07/09 06:25:54;;;;;;;25.75;24.85;;;25.70;99.90;;;;;;5015095;28;20208;-66
2023/07/09 06:28:23;;;;;;;25.40;24.50;;;25.80;99.90;;;;;;5015234;28;20220;-64
2023/07/09 06:30:50;;;;;;;25.40;24.50;;;26.00;99.90;;;;;;5015858;28;20212;-65
2023/07/09 06:33:20;;;;;;;26.73;25.83;;;26.10;99.90;;;;;;5022190;28;20241;-63
2023/07/09 06:35:51;;;;;;;27.77;26.77;;;26.30;99.90;;;;;;5012990;28;20205;-63
2023/07/09 06:38:18;;;;;;;26.65;25.70;;;26.40;99.90;;;;;;5007921;28;20213;-65
2023/07/09 06:40:45;;;;;;;26.90;25.98;;;26.50;99.90;;;;;;5008058;28;20225;-64
2023/07/09 06:43:12;;;;;;;26.45;25.52;;;26.70;99.90;;;;;;5007268;28;20237;-64
2023/07/09 06:45:40;;;;;;;24.70;23.80;;;26.80;99.90;;;;;;5015930;28;20216;-62
2023/07/09 06:48:07;;;;;;;28.45;27.45;;;26.80;99.90;;;;;;5012801;28;20205;-64
2023/07/09 06:50:36;;;;;;;28.15;27.15;;;27.00;99.90;;;;;;5010649;28;20202;-64
2023/07/09 06:53:02;;;;;;;27.50;26.55;;;27.20;99.90;;;;;;5006742;28;20226;-66
2023/07/09 06:55:30;;;;;;;28.25;27.25;;;27.30;99.90;;;;;;5008934;28;20205;-62
2023/07/09 06:57:58;;;;;;;27.45;26.45;;;27.50;99.90;;;;;;5007485;28;20256;-66
2023/07/09 07:00:25;;;;;;;27.75;26.70;;;27.70;99.90;;;;;;5022136;28;20230;-65
2023/07/09 07:02:52;;;;;;;26.10;25.17;;;27.80;99.90;;;;;;5011349;28;20211;-66
2023/07/09 07:05:19;;;;;;;29.40;28.35;;;28.00;99.90;;;;;;5014984;28;20431;-63
2023/07/09 07:07:47;;;;;;;24.73;23.88;;;28.00;99.90;;;;;;5014421;28;20217;-64
2023/07/09 07:10:14;;;;;;;27.15;26.20;;;27.80;99.90;;;;;;5013362;28;20209;-66
2023/07/09 07:12:44;;;;;;;25.63;24.73;;;27.80;99.90;;;;;;5007469;28;20202;-64
2023/07/09 07:15:13;;;;;;;26.38;25.45;;;28.00;99.90;;;;;;5006187;28;20198;-67
2023/07/09 07:17:40;;;;;;;27.70;26.70;;;28.00;99.90;;;;;;5002349;28;20213;-65
2023/07/09 07:20:08;;;;;;;24.50;23.60;;;28.10;99.90;;;;;;5002093;28;20248;-67
2023/07/09 07:22:35;;;;;;;27.63;26.65;;;28.20;99.90;;;;;;5003983;28;20664;-64
2023/07/09 07:25:04;;;;;;;27.27;26.27;;;28.30;99.90;;;;;;5005151;28;20219;-66
2023/07/09 07:27:31;;;;;;;28.35;27.35;;;28.20;99.90;;;;;;5006471;28;20296;-65
2023/07/09 07:29:57;;;;;;;25.23;24.23;;;28.30;99.90;;;;;;5012115;28;20585;-66
2023/07/09 07:32:24;;;;;;;25.20;24.30;;;28.30;99.90;;;;;;5013171;28;20593;-67
2023/07/09 07:34:51;;;;;;;25.90;25.00;;;28.50;99.90;;;;;;5012533;28;20309;-66
2023/07/09 07:37:20;;;;;;;24.98;24.08;;;28.60;99.90;;;;;;5012896;28;20585;-65
2023/07/09 07:39:47;;;;;;;24.70;23.80;;;28.70;99.90;;;;;;5009168;28;20545;-65
2023/07/09 07:42:15;;;;;;;25.10;24.20;;;28.90;99.90;;;;;;5012658;28;20212;-66
2023/07/09 07:44:42;;;;;;;23.23;22.42;;;28.90;99.90;;;;;;5012052;28;20328;-67
2023/07/09 07:47:11;;;;;;;21.02;20.30;;;29.00;99.90;;;;;;5011927;28;20640;-64
2023/07/09 07:49:38;;;;;;;19.88;19.17;;;29.10;99.90;;;;;;5012155;28;20288;-65
2023/07/09 07:52:05;;;;;;;17.95;17.25;;;29.10;99.90;;;;;;5012061;28;20252;-64
2023/07/09 07:54:32;;;;;;;17.02;16.42;;;29.30;99.90;;;;;;5011865;28;20703;-65
2023/07/09 07:56:59;;;;;;;14.80;14.30;;;29.40;99.90;;;;;;5012360;28;20587;-66
2023/07/09 07:59:27;;;;;;;18.42;17.75;;;29.50;99.90;;;;;;5010486;28;20208;-68
2023/07/09 08:01:54;;;;;;;12.88;12.38;;;29.60;99.90;;;;;;5011240;28;20217;-64
2023/07/09 08:04:21;;;;;;;15.23;14.70;;;29.70;99.90;;;;;;5011299;28;20254;-64
2023/07/09 08:06:48;;;;;;;14.15;13.65;;;29.60;99.90;;;;;;5008123;28;20232;-64
2023/07/09 08:09:16;;;;;;;14.38;13.88;;;29.70;99.90;;;;;;5010889;28;20201;-65
2023/07/09 08:11:43;;;;;;;12.55;12.15;;;29.80;99.90;;;;;;5010539;28;20204;-66
2023/07/09 08:14:19;;;;;;;13.98;13.40;;;29.90;99.90;;;;;;5016858;28;20231;-64
2023/07/09 08:16:48;;;;;;;14.57;14.02;;;30.10;99.90;;;;;;5021521;28;20941;-65
2023/07/09 08:19:15;;;;;;;15.38;14.88;;;30.10;99.90;;;;;;5012182;28;20259;-64
2023/07/09 08:21:41;;;;;;;14.48;13.98;;;30.20;99.90;;;;;;5012151;28;20235;-65
2023/07/09 08:24:08;;;;;;;12.93;12.52;;;30.20;99.90;;;;;;5012109;28;20255;-67
2023/07/09 08:26:37;;;;;;;13.10;12.68;;;30.30;99.90;;;;;;5011166;28;20201;-65
2023/07/09 08:29:05;;;;;;;12.05;11.65;;;30.20;99.90;;;;;;5009026;28;20624;-63
2023/07/09 08:31:32;;;;;;;11.80;11.40;;;30.30;99.90;;;;;;5004745;28;20258;-66
2023/07/09 08:34:00;;;;;;;9.13;8.82;;;30.50;99.90;;;;;;5009926;28;20229;-68
2023/07/09 08:36:28;;;;;;;9.55;9.25;;;30.60;99.90;;;;;;5013436;28;20241;-66
2023/07/09 08:38:55;;;;;;;10.00;9.50;;;30.60;99.90;;;;;;5011013;28;20265;-66
2023/07/09 08:41:40;;;;;;;9.25;8.88;;;30.70;99.90;;;;;;5015694;28;20217;-67
2023/07/09 08:46:48;;;;;;;14.68;14.15;;;30.90;99.90;;;;;;4981929;28;20251;-66
2023/07/09 08:49:21;;;;;;;10.38;9.98;;;30.90;99.90;;;;;;4979473;28;20230;-66
2023/07/09 08:51:49;;;;;;;10.60;10.20;;;30.70;99.90;;;;;;4960490;28;20229;-64
2023/07/09 08:54:25;;;;;;;10.70;10.30;;;31.00;99.90;;;;;;4961193;28;20203;-65
2023/07/09 08:56:52;;;;;;;10.52;10.13;;;31.00;99.90;;;;;;4959357;28;20252;-66
2023/07/09 08:59:20;;;;;;;10.93;10.52;;;31.10;99.90;;;;;;4960114;28;20198;-65
2023/07/09 09:01:52;;;;;;;9.70;9.40;;;31.10;99.90;;;;;;4959591;28;20225;-66
2023/07/09 09:04:25;;;;;;;10.20;9.80;;;31.30;99.90;;;;;;4956885;28;20282;-65
2023/07/09 09:06:58;;;;;;;10.40;10.00;;;31.40;99.90;;;;;;4967561;28;20211;-65
2023/07/09 09:09:31;;;;;;;9.30;9.00;;;31.40;99.90;;;;;;4957533;28;20207;-65
2023/07/09 09:12:05;;;;;;;9.80;9.40;;;31.60;99.90;;;;;;4965406;28;20279;-66
2023/07/09 09:14:34;;;;;;;9.80;9.50;;;31.70;99.90;;;;;;4963736;28;20229;-65
2023/07/09 09:17:03;;;;;;;10.20;9.85;;;31.60;99.90;;;;;;4964632;28;20225;-64
2023/07/09 09:19:36;;;;;;;10.70;10.30;;;31.60;99.90;;;;;;4964991;28;20298;-67
2023/07/09 09:22:08;;;;;;;11.02;10.63;;;31.80;99.90;;;;;;4969840;28;20214;-67
2023/07/09 09:24:38;;;;;;;11.35;10.95;;;31.90;99.90;;;;;;4965981;28;20222;-65
2023/07/09 09:27:05;;;;;;;12.60;12.10;;;32.10;99.90;;;;;;4963696;28;20205;-66
2023/07/09 09:29:32;;;;;;;12.90;12.40;;;32.20;99.90;;;;;;4961294;28;20213;-66
2023/07/09 09:32:03;;;;;;;16.50;15.80;;;32.50;99.90;;;;;;4963705;28;20209;-66
2023/07/09 09:34:32;;;;;;;14.30;13.80;;;32.40;99.90;;;;;;4968124;28;20548;-67
2023/07/09 09:37:00;;;;;;;13.95;13.45;;;32.10;99.90;;;;;;4964989;28;20257;-65
2023/07/09 09:39:27;;;;;;;14.85;14.35;;;32.30;99.90;;;;;;4966598;28;20863;-67
2023/07/09 09:41:56;;;;;;;14.65;14.13;;;32.40;99.90;;;;;;4962137;28;20317;-62
2023/07/09 09:44:28;;;;;;;12.55;12.05;;;32.40;99.90;;;;;;4963515;28;20203;-62
2023/07/09 09:46:57;;;;;;;12.23;11.73;;;32.50;99.90;;;;;;4957883;28;20569;-62
2023/07/09 09:49:24;;;;;;;11.80;11.40;;;32.70;99.90;;;;;;4958213;28;20259;-69
2023/07/09 09:51:56;;;;;;;10.85;10.45;;;32.80;99.90;;;;;;4962921;28;20318;-66
2023/07/09 09:54:25;;;;;;;11.57;11.18;;;33.00;99.90;;;;;;4965496;28;20200;-67
2023/07/09 09:56:54;;;;;;;12.40;11.90;;;33.10;99.90;;;;;;4962204;28;20211;-67
2023/07/09 09:59:28;;;;;;;15.23;14.63;;;33.10;99.90;;;;;;4959488;28;20195;-67
2023/07/09 10:02:00;;;;;;;11.85;11.45;;;33.10;99.90;;;;;;4962602;28;20208;-67
2023/07/09 10:04:28;;;;;;;11.73;11.32;;;33.20;99.90;;;;;;4963110;28;20708;-67
2023/07/09 10:07:01;;;;;;;12.05;11.65;;;33.40;99.90;;;;;;4965281;28;20199;-67
2023/07/09 10:09:40;;;;;;;12.25;11.75;;;33.50;99.90;;;;;;4965244;28;20302;-67
2023/07/09 10:12:15;;;;;;;12.35;11.95;;;33.70;99.90;;;;;;4964201;28;20191;-67
2023/07/09 10:14:55;;;;;;;12.20;11.80;;;33.90;99.90;;;;;;4964886;28;20305;-63
2023/07/09 10:17:30;;;;;;;11.23;10.82;;;34.00;99.90;;;;;;4967185;28;20198;-67
2023/07/09 10:20:00;;;;;;;12.13;11.63;;;34.10;99.90;;;;;;4964770;28;20293;-66
2023/07/09 10:22:41;;;;;;;13.05;12.55;;;34.10;99.90;;;;;;4963413;28;20210;-67
2023/07/09 10:25:21;;;;;;;17.63;17.02;;;34.10;99.90;;;;;;4963053;28;20811;-64
2023/07/09 10:28:05;;;;;;;13.38;12.88;;;34.20;99.90;;;;;;4966377;28;20630;-66
2023/07/09 10:30:46;;;;;;;13.52;13.02;;;34.10;99.90;;;;;;4962941;28;20191;-66
2023/07/09 10:33:21;;;;;;;14.55;14.05;;;34.30;99.90;;;;;;4966558;28;21453;-67
2023/07/09 10:35:56;;;;;;;14.38;13.77;;;34.40;99.90;;;;;;4966442;28;20309;-67
2023/07/09 10:38:39;;;;;;;14.60;14.10;;;34.40;99.90;;;;;;4965537;28;20257;-68
2023/07/09 10:41:12;;;;;;;13.77;13.27;;;34.60;99.90;;;;;;4964289;28;20999;-66
2023/07/09 10:43:45;;;;;;;15.07;14.55;;;34.50;99.90;;;;;;4964137;28;20203;-68
2023/07/09 10:46:16;;;;;;;40.45;38.78;;;34.70;99.90;;;;;;4965132;28;20315;-66
2023/07/09 10:48:46;;;;;;;25.40;24.35;;;34.70;99.90;;;;;;4966780;28;20253;-68
2023/07/09 10:51:23;;;;;;;16.65;16.05;;;34.70;99.90;;;;;;4964866;28;20195;-65
2023/07/09 10:53:57;;;;;;;22.00;21.20;;;34.80;99.90;;;;;;4964398;28;20305;-66
2023/07/09 10:56:28;;;;;;;18.48;17.77;;;34.70;99.90;;;;;;4965911;28;20240;-67
2023/07/09 10:59:04;;;;;;;17.50;16.88;;;34.60;99.90;;;;;;4967079;28;20910;-67
2023/07/09 11:01:34;;;;;;;14.57;14.07;;;34.80;99.90;;;;;;4964091;28;20219;-67
2023/07/09 11:04:04;;;;;;;14.35;13.85;;;34.70;99.90;;;;;;4961552;28;20203;-66
2023/07/09 11:06:35;;;;;;;26.52;25.35;;;34.70;99.90;;;;;;4960599;28;20711;-66
2023/07/09 11:09:12;;;;;;;14.45;13.93;;;34.90;99.90;;;;;;4966912;28;20253;-70
2023/07/09 11:11:44;;;;;;;15.95;15.35;;;35.20;99.90;;;;;;4975441;28;20252;-68
2023/07/09 11:14:24;;;;;;;19.52;18.83;;;35.40;99.90;;;;;;4969981;28;20725;-67
2023/07/09 11:16:51;;;;;;;17.08;16.45;;;35.30;99.90;;;;;;4962840;28;20207;-68
2023/07/09 11:19:21;;;;;;;18.80;18.10;;;35.20;99.90;;;;;;4966342;28;20211;-68
2023/07/09 11:22:04;;;;;;;22.88;22.08;;;35.40;99.90;;;;;;4959647;28;20306;-67
2023/07/09 11:24:36;;;;;;;19.88;18.98;;;35.40;99.90;;;;;;4967519;28;20222;-67
2023/07/09 11:27:03;;;;;;;21.35;20.65;;;35.50;99.90;;;;;;4969457;28;20265;-67
2023/07/09 11:29:31;;;;;;;36.75;35.42;;;35.50;99.90;;;;;;4968640;28;20542;-68
2023/07/09 11:32:09;;;;;;;37.55;36.20;;;35.60;99.90;;;;;;4960656;28;20209;-66
2023/07/09 11:34:46;;;;;;;61.78;59.30;;;35.60;99.90;;;;;;4966197;28;20229;-68
2023/07/09 11:37:13;;;;;;;40.20;38.75;;;35.80;99.90;;;;;;4972649;28;20206;-67
2023/07/09 11:39:47;;;;;;;58.13;55.97;;;35.80;99.90;;;;;;4964708;28;20241;-68
2023/07/09 11:42:29;;;;;;;41.05;39.55;;;35.90;99.90;;;;;;4952629;28;20813;-67
2023/07/09 11:45:03;;;;;;;41.88;40.25;;;35.90;99.90;;;;;;4970890;28;20230;-66
2023/07/09 11:47:35;;;;;;;46.53;44.65;;;35.90;99.90;;;;;;4970351;28;20222;-66
2023/07/09 11:50:06;;;;;;;32.05;30.85;;;35.90;99.90;;;;;;4950326;28;20216;-66
2023/07/09 11:52:36;;;;;;;96.32;92.15;;;36.10;99.90;;;;;;4968341;28;20231;-68
2023/07/09 11:55:32;;;;;;;60.22;58.00;;;36.30;99.90;;;;;;4969577;28;20249;-68
2023/07/09 11:58:02;;;;;;;77.07;73.88;;;36.20;99.90;;;;;;4965473;28;20839;-67
2023/07/09 12:00:38;;;;;;;45.60;43.88;;;36.00;99.90;;;;;;4965658;28;20354;-68
2023/07/09 12:03:06;;;;;;;53.80;51.80;;;36.10;99.90;;;;;;4970324;28;20326;-68
2023/07/09 12:05:33;;;;;;;43.70;42.00;;;36.10;99.90;;;;;;4966312;28;20737;-69
2023/07/09 12:08:01;;;;;;;67.35;64.95;;;36.10;99.90;;;;;;4964667;28;20209;-68
2023/07/09 12:10:34;;;;;;;62.50;60.17;;;36.20;99.90;;;;;;4965776;28;20322;-68
2023/07/09 12:13:03;;;;;;;47.83;46.03;;;36.30;99.90;;;;;;4968841;28;20209;-67
2023/07/09 12:15:32;;;;;;;70.70;68.10;;;36.50;99.90;;;;;;4961767;28;20223;-66
2023/07/09 12:18:04;;;;;;;93.03;89.75;;;36.60;99.90;;;;;;4964417;28;20214;-67
2023/07/09 12:20:34;;;;;;;84.50;81.53;;;36.90;99.90;;;;;;4971694;28;20202;-68
2023/07/09 12:23:10;;;;;;;96.32;92.97;;;37.00;99.90;;;;;;4967244;28;20211;-67
2023/07/09 12:25:38;;;;;;;107.30;103.28;;;37.00;99.90;;;;;;4969987;28;20237;-68
2023/07/09 12:28:05;;;;;;;80.70;77.78;;;37.10;99.60;;;;;;4967745;28;20603;-68
2023/07/09 12:30:35;;;;;;;90.25;87.07;;;37.20;99.60;;;;;;4971005;28;20857;-66
2023/07/09 12:33:08;;;;;;;85.60;82.57;;;37.10;98.20;;;;;;4972142;28;20194;-68
2023/07/09 12:35:36;;;;;;;77.43;74.68;;;37.10;98.40;;;;;;4966082;28;20226;-67
2023/07/09 12:38:03;;;;;;;71.25;68.75;;;37.10;97.60;;;;;;4969917;28;20210;-65
2023/07/09 12:40:30;;;;;;;71.60;69.05;;;37.30;98.00;;;;;;4961003;28;20666;-69